sensor_id;sensor_type;location;lat;lon;timestamp;pressure;altitude;pressure_sealevel;temperature;humidity
52319;BME280;38258;51.148;14.068;2022-09-20T00:01:04;98359.84;;;7.43;100.00
52319;BME280;38258;51.148;14.068;2022-09-20T00:03:32;98361.63;;;7.38;100.00
52319;BME280;38258;51.148;14.068;2022-09-20T00:06:00;98367.66;;;7.41;100.00
52319;BME280;38258;51.148;14.068;2022-09-20T00:08:29;98370.38;;;7.33;100.00
52319;BME280;38258;51.148;14.068;2022-09-20T00:10:59;98374.69;;;7.36;100.00
52319;BME280;38258;51.148;14.068;2022-09-20T00:13:27;98371.16;;;7.39;100.00
52319;BME280;38258;51.148;14.068;2022-09-20T00:15:54;98372.06;;;7.38;100.00
52319;BME280;38258;51.148;14.068;2022-09-20T00:18:21;98344.56;;;7.21;100.00
52319;BME280;38258;51.148;14.068;2022-09-20T00:20:50;98358.25;;;7.34;100.00
52319;BME280;38258;51.148;14.068;2022-09-20T00:23:17;98365.22;;;7.32;100.00
52319;BME280;38258;51.148;14.068;2022-09-20T00:25:53;98374.06;;;7.20;100.00
52319;BME280;38258;51.148;14.068;2022-09-20T00:28:20;98376.53;;;7.29;100.00
52319;BME280;38258;51.148;14.068;2022-09-20T00:30:47;98381.72;;;7.29;100.00
52319;BME280;38258;51.148;14.068;2022-09-20T00:33:14;98379.19;;;7.26;100.00
52319;BME280;38258;51.148;14.068;2022-09-20T00:35:42;98380.94;;;7.24;100.00
52319;BME280;38258;51.148;14.068;2022-09-20T00:38:08;98385.19;;;7.30;100.00
52319;BME280;38258;51.148;14.068;2022-09-20T00:40:35;98384.41;;;7.26;100.00
52319;BME280;38258;51.148;14.068;2022-09-20T00:43:03;98374.00;;;7.23;100.00
52319;BME280;38258;51.148;14.068;2022-09-20T00:45:30;98381.88;;;7.20;100.00
52319;BME280;38258;51.148;14.068;2022-09-20T00:48:02;98381.69;;;7.32;100.00
52319;BME280;38258;51.148;14.068;2022-09-20T00:50:33;98373.81;;;7.35;100.00
52319;BME280;38258;51.148;14.068;2022-09-20T00:53:06;98373.03;;;7.32;100.00
52319;BME280;38258;51.148;14.068;2022-09-20T00:55:37;98378.25;;;7.32;100.00
52319;BME280;38258;51.148;14.068;2022-09-20T00:58:07;98377.44;;;7.27;100.00
52319;BME280;38258;51.148;14.068;2022-09-20T01:00:36;98380.06;;;7.25;100.00
52319;BME280;38258;51.148;14.068;2022-09-20T01:03:06;98373.88;;;7.32;100.00
52319;BME280;38258;51.148;14.068;2022-09-20T01:05:34;98379.09;;;7.31;100.00
52319;BME280;38258;51.148;14.068;2022-09-20T01:08:03;98374.75;;;7.31;100.00
52319;BME280;38258;51.148;14.068;2022-09-20T01:10:31;98373.03;;;7.32;100.00
52319;BME280;38258;51.148;14.068;2022-09-20T01:12:58;98379.09;;;7.32;100.00
52319;BME280;38258;51.148;14.068;2022-09-20T01:15:26;98367.84;;;7.29;100.00
52319;BME280;38258;51.148;14.068;2022-09-20T01:17:57;98380.84;;;7.30;100.00
52319;BME280;38258;51.148;14.068;2022-09-20T01:20:27;98372.28;;;7.25;100.00
52319;BME280;38258;51.148;14.068;2022-09-20T01:23:15;98370.44;;;7.30;100.00
52319;BME280;38258;51.148;14.068;2022-09-20T01:26:06;98380.06;;;7.25;100.00
52319;BME280;38258;51.148;14.068;2022-09-20T01:28:37;98374.94;;;7.19;100.00
52319;BME280;38258;51.148;14.068;2022-09-20T01:31:09;98370.56;;;7.21;100.00
52319;BME280;38258;51.148;14.068;2022-09-20T01:33:45;98366.41;;;7.09;100.00
52319;BME280;38258;51.148;14.068;2022-09-20T01:36:17;98368.13;;;7.12;100.00
52319;BME280;38258;51.148;14.068;2022-09-20T01:38:55;98372.47;;;7.10;100.00
52319;BME280;38258;51.148;14.068;2022-09-20T01:41:29;98372.47;;;7.11;100.00
52319;BME280;38258;51.148;14.068;2022-09-20T01:44:05;98368.13;;;7.10;100.00
52319;BME280;38258;51.148;14.068;2022-09-20T01:46:38;98369.88;;;7.10;100.00
52319;BME280;38258;51.148;14.068;2022-09-20T01:49:16;98374.16;;;7.14;100.00
52319;BME280;38258;51.148;14.068;2022-09-20T01:52:24;98373.34;;;7.10;100.00
52319;BME280;38258;51.148;14.068;2022-09-20T01:58:10;98374.28;;;7.06;100.00
52319;BME280;38258;51.148;14.068;2022-09-20T02:00:59;98376.66;;;7.20;100.00
52319;BME280;38258;51.148;14.068;2022-09-20T02:06:45;98379.97;;;7.30;100.00
52319;BME280;38258;51.148;14.068;2022-09-20T02:09:29;98379.25;;;7.20;100.00
52319;BME280;38258;51.148;14.068;2022-09-20T02:12:21;98380.16;;;7.19;100.00
52319;BME280;38258;51.148;14.068;2022-09-20T02:15:02;98382.63;;;7.28;100.00
52319;BME280;38258;51.148;14.068;2022-09-20T02:17:44;98372.94;;;7.36;100.00
52319;BME280;38258;51.148;14.068;2022-09-20T02:20:31;98378.97;;;7.40;100.00
52319;BME280;38258;51.148;14.068;2022-09-20T02:23:11;98377.47;;;7.25;100.00
52319;BME280;38258;51.148;14.068;2022-09-20T02:25:56;98388.56;;;7.36;100.00
52319;BME280;38258;51.148;14.068;2022-09-20T02:28:35;98378.13;;;7.38;100.00
52319;BME280;38258;51.148;14.068;2022-09-20T02:31:15;98386.75;;;7.42;100.00
52319;BME280;38258;51.148;14.068;2022-09-20T02:36:55;98383.34;;;7.38;100.00
52319;BME280;38258;51.148;14.068;2022-09-20T02:39:32;98385.94;;;7.40;100.00
52319;BME280;38258;51.148;14.068;2022-09-20T02:42:08;98387.63;;;7.41;100.00
52319;BME280;38258;51.148;14.068;2022-09-20T02:44:45;98391.91;;;7.43;100.00
52319;BME280;38258;51.148;14.068;2022-09-20T02:47:20;98390.97;;;7.49;100.00
52319;BME280;38258;51.148;14.068;2022-09-20T02:50:03;98390.19;;;7.44;100.00
52319;BME280;38258;51.148;14.068;2022-09-20T02:52:41;98391.03;;;7.46;100.00
52319;BME280;38258;51.148;14.068;2022-09-20T02:55:15;98397.16;;;7.42;100.00
52319;BME280;38258;51.148;14.068;2022-09-20T02:57:47;98396.22;;;7.46;100.00
52319;BME280;38258;51.148;14.068;2022-09-20T03:00:20;98400.53;;;7.48;100.00
52319;BME280;38258;51.148;14.068;2022-09-20T03:02:59;98393.72;;;7.40;100.00
52319;BME280;38258;51.148;14.068;2022-09-20T03:05:37;98399.78;;;7.42;100.00
52319;BME280;38258;51.148;14.068;2022-09-20T03:08:19;98397.94;;;7.47;100.00
52319;BME280;38258;51.148;14.068;2022-09-20T03:10:56;98396.22;;;7.47;100.00
52319;BME280;38258;51.148;14.068;2022-09-20T03:13:39;98397.94;;;7.48;100.00
52319;BME280;38258;51.148;14.068;2022-09-20T03:16:16;98410.94;;;7.48;100.00
52319;BME280;38258;51.148;14.068;2022-09-20T03:18:52;98409.06;;;7.57;100.00
52319;BME280;38258;51.148;14.068;2022-09-20T03:21:35;98407.47;;;7.49;100.00
52319;BME280;38258;51.148;14.068;2022-09-20T03:24:17;98410.13;;;7.43;100.00
52319;BME280;38258;51.148;14.068;2022-09-20T03:26:51;98413.69;;;7.38;100.00
52319;BME280;38258;51.148;14.068;2022-09-20T03:29:36;98418.88;;;7.39;100.00
52319;BME280;38258;51.148;14.068;2022-09-20T03:32:21;98418.88;;;7.41;100.00
52319;BME280;38258;51.148;14.068;2022-09-20T03:34:59;98418.06;;;7.35;100.00
52319;BME280;38258;51.148;14.068;2022-09-20T03:37:44;98398.19;;;7.31;100.00
52319;BME280;38258;51.148;14.068;2022-09-20T03:40:47;98413.66;;;7.41;100.00
52319;BME280;38258;51.148;14.068;2022-09-20T03:43:27;98405.22;;;7.25;100.00
52319;BME280;38258;51.148;14.068;2022-09-20T03:46:08;98421.47;;;7.39;100.00
52319;BME280;38258;51.148;14.068;2022-09-20T03:49:26;98418.75;;;7.47;100.00
52319;BME280;38258;51.148;14.068;2022-09-20T03:51:57;98420.47;;;7.49;100.00
52319;BME280;38258;51.148;14.068;2022-09-20T03:57:33;98419.63;;;7.47;100.00
52319;BME280;38258;51.148;14.068;2022-09-20T04:00:19;98418.75;;;7.48;100.00
52319;BME280;38258;51.148;14.068;2022-09-20T04:03:09;98423.91;;;7.50;100.00
52319;BME280;38258;51.148;14.068;2022-09-20T04:05:46;98418.78;;;7.45;100.00
52319;BME280;38258;51.148;14.068;2022-09-20T04:08:23;98425.75;;;7.43;100.00
52319;BME280;38258;51.148;14.068;2022-09-20T04:11:02;98426.44;;;7.55;100.00
52319;BME280;38258;51.148;14.068;2022-09-20T04:13:39;98424.78;;;7.50;100.00
52319;BME280;38258;51.148;14.068;2022-09-20T04:16:21;98423.16;;;7.43;100.00
52319;BME280;38258;51.148;14.068;2022-09-20T04:18:51;98435.38;;;7.36;100.00
52319;BME280;38258;51.148;14.068;2022-09-20T04:21:26;98430.19;;;7.36;100.00
52319;BME280;38258;51.148;14.068;2022-09-20T04:23:59;98425.06;;;7.32;100.00
52319;BME280;38258;51.148;14.068;2022-09-20T04:26:28;98429.63;;;7.16;100.00
52319;BME280;38258;51.148;14.068;2022-09-20T04:29:01;98422.75;;;7.10;100.00
52319;BME280;38258;51.148;14.068;2022-09-20T04:31:37;98433.88;;;7.21;100.00
52319;BME280;38258;51.148;14.068;2022-09-20T04:34:11;98439.91;;;7.25;100.00
52319;BME280;38258;51.148;14.068;2022-09-20T04:36:56;98445.06;;;7.28;100.00
52319;BME280;38258;51.148;14.068;2022-09-20T04:39:33;98443.47;;;7.18;100.00
52319;BME280;38258;51.148;14.068;2022-09-20T04:45:36;98440.03;;;7.17;100.00
52319;BME280;38258;51.148;14.068;2022-09-20T04:51:39;98442.53;;;7.24;100.00
52319;BME280;38258;51.148;14.068;2022-09-20T04:54:48;98446.06;;;7.19;100.00
52319;BME280;38258;51.148;14.068;2022-09-20T04:57:38;98450.31;;;7.24;100.00
52319;BME280;38258;51.148;14.068;2022-09-20T05:00:15;98453.81;;;7.21;100.00
52319;BME280;38258;51.148;14.068;2022-09-20T05:02:58;98449.38;;;7.29;100.00
52319;BME280;38258;51.148;14.068;2022-09-20T05:05:44;98452.09;;;7.20;100.00
52319;BME280;38258;51.148;14.068;2022-09-20T05:08:45;98458.28;;;7.13;100.00
52319;BME280;38258;51.148;14.068;2022-09-20T05:14:36;98456.38;;;7.26;100.00
52319;BME280;38258;51.148;14.068;2022-09-20T05:17:23;98459.84;;;7.23;100.00
52319;BME280;38258;51.148;14.068;2022-09-20T05:20:22;98458.97;;;7.27;100.00
52319;BME280;38258;51.148;14.068;2022-09-20T05:23:19;98458.06;;;7.28;100.00
52319;BME280;38258;51.148;14.068;2022-09-20T05:26:11;98453.09;;;7.13;100.00
52319;BME280;38258;51.148;14.068;2022-09-20T05:28:49;98458.28;;;7.11;100.00
52319;BME280;38258;51.148;14.068;2022-09-20T05:31:25;98461.69;;;7.16;100.00
52319;BME280;38258;51.148;14.068;2022-09-20T05:34:00;98472.13;;;7.13;100.00
52319;BME280;38258;51.148;14.068;2022-09-20T05:36:38;98465.22;;;7.12;100.00
52319;BME280;38258;51.148;14.068;2022-09-20T05:39:15;98474.69;;;7.18;100.00
52319;BME280;38258;51.148;14.068;2022-09-20T05:41:53;98476.53;;;7.08;100.00
52319;BME280;38258;51.148;14.068;2022-09-20T05:44:29;98477.44;;;7.07;100.00
52319;BME280;38258;51.148;14.068;2022-09-20T05:47:03;98482.44;;;7.21;100.00
52319;BME280;38258;51.148;14.068;2022-09-20T05:49:46;98483.47;;;7.11;100.00
52319;BME280;38258;51.148;14.068;2022-09-20T05:52:34;98492.78;;;7.24;100.00
52319;BME280;38258;51.148;14.068;2022-09-20T05:55:23;98498.09;;;7.19;100.00
52319;BME280;38258;51.148;14.068;2022-09-20T05:58:27;98489.34;;;7.25;100.00
52319;BME280;38258;51.148;14.068;2022-09-20T06:01:02;98481.41;;;7.34;100.00
52319;BME280;38258;51.148;14.068;2022-09-20T06:03:36;98495.22;;;7.40;100.00
52319;BME280;38258;51.148;14.068;2022-09-20T06:06:11;98502.06;;;7.45;100.00
52319;BME280;38258;51.148;14.068;2022-09-20T06:09:04;98504.75;;;7.39;100.00
52319;BME280;38258;51.148;14.068;2022-09-20T06:11:48;98496.22;;;7.29;100.00
52319;BME280;38258;51.148;14.068;2022-09-20T06:14:24;98509.22;;;7.29;100.00
52319;BME280;38258;51.148;14.068;2022-09-20T06:17:03;98510.00;;;7.36;100.00
52319;BME280;38258;51.148;14.068;2022-09-20T06:19:38;98515.06;;;7.45;100.00
52319;BME280;38258;51.148;14.068;2022-09-20T06:22:12;98512.50;;;7.42;100.00
52319;BME280;38258;51.148;14.068;2022-09-20T06:24:47;98513.50;;;7.33;100.00
52319;BME280;38258;51.148;14.068;2022-09-20T06:27:16;98510.84;;;7.38;100.00
52319;BME280;38258;51.148;14.068;2022-09-20T06:29:48;98509.97;;;7.39;100.00
52319;BME280;38258;51.148;14.068;2022-09-20T06:32:17;98511.69;;;7.40;100.00
52319;BME280;38258;51.148;14.068;2022-09-20T06:34:45;98509.97;;;7.38;100.00
52319;BME280;38258;51.148;14.068;2022-09-20T06:37:23;98516.88;;;7.42;100.00
52319;BME280;38258;51.148;14.068;2022-09-20T06:40:23;98514.22;;;7.45;100.00
52319;BME280;38258;51.148;14.068;2022-09-20T06:43:09;98514.28;;;7.39;100.00
52319;BME280;38258;51.148;14.068;2022-09-20T06:45:38;98522.91;;;7.44;100.00
52319;BME280;38258;51.148;14.068;2022-09-20T06:48:06;98512.41;;;7.52;100.00
52319;BME280;38258;51.148;14.068;2022-09-20T06:50:34;98518.44;;;7.54;100.00
52319;BME280;38258;51.148;14.068;2022-09-20T06:53:01;98513.22;;;7.54;100.00
52319;BME280;38258;51.148;14.068;2022-09-20T06:55:34;98524.59;;;7.48;100.00
52319;BME280;38258;51.148;14.068;2022-09-20T06:58:03;98519.44;;;7.45;100.00
52319;BME280;38258;51.148;14.068;2022-09-20T07:00:30;98529.78;;;7.48;100.00
52319;BME280;38258;51.148;14.068;2022-09-20T07:02:57;98532.44;;;7.46;100.00
52319;BME280;38258;51.148;14.068;2022-09-20T07:05:24;98531.66;;;7.36;100.00
52319;BME280;38258;51.148;14.068;2022-09-20T07:07:55;98533.34;;;7.42;100.00
52319;BME280;38258;51.148;14.068;2022-09-20T07:10:22;98526.41;;;7.43;100.00
52319;BME280;38258;51.148;14.068;2022-09-20T07:12:51;98536.72;;;7.49;100.00
52319;BME280;38258;51.148;14.068;2022-09-20T07:15:20;98546.22;;;7.53;100.00
52319;BME280;38258;51.148;14.068;2022-09-20T07:17:49;98538.50;;;7.45;100.00
52319;BME280;38258;51.148;14.068;2022-09-20T07:20:16;98543.69;;;7.45;100.00
52319;BME280;38258;51.148;14.068;2022-09-20T07:22:44;98541.03;;;7.50;100.00
52319;BME280;38258;51.148;14.068;2022-09-20T07:25:11;98546.22;;;7.52;100.00
52319;BME280;38258;51.148;14.068;2022-09-20T07:27:38;98555.84;;;7.46;100.00
52319;BME280;38258;51.148;14.068;2022-09-20T07:30:08;98560.13;;;7.50;100.00
52319;BME280;38258;51.148;14.068;2022-09-20T07:32:35;98560.25;;;7.41;100.00
52319;BME280;38258;51.148;14.068;2022-09-20T07:35:02;98567.00;;;7.55;100.00
52319;BME280;38258;51.148;14.068;2022-09-20T07:37:29;98572.25;;;7.53;100.00
52319;BME280;38258;51.148;14.068;2022-09-20T07:39:56;98570.41;;;7.60;100.00
52319;BME280;38258;51.148;14.068;2022-09-20T07:42:23;98572.06;;;7.66;100.00
52319;BME280;38258;51.148;14.068;2022-09-20T07:44:50;98575.53;;;7.66;100.00
52319;BME280;38258;51.148;14.068;2022-09-20T07:47:19;98578.75;;;7.85;100.00
52319;BME280;38258;51.148;14.068;2022-09-20T07:49:47;98568.88;;;8.06;100.00
52319;BME280;38258;51.148;14.068;2022-09-20T07:52:14;98573.28;;;8.02;100.00
52319;BME280;38258;51.148;14.068;2022-09-20T07:54:41;98576.22;;;7.81;100.00
52319;BME280;38258;51.148;14.068;2022-09-20T07:57:08;98575.38;;;7.78;100.00
52319;BME280;38258;51.148;14.068;2022-09-20T07:59:35;98578.81;;;7.79;100.00
52319;BME280;38258;51.148;14.068;2022-09-20T08:02:05;98573.88;;;7.62;100.00
52319;BME280;38258;51.148;14.068;2022-09-20T08:04:33;98585.97;;;7.64;100.00
52319;BME280;38258;51.148;14.068;2022-09-20T08:07:00;98546.56;;;7.25;100.00
52319;BME280;38258;51.148;14.068;2022-09-20T08:09:27;98591.25;;;7.58;100.00
52319;BME280;38258;51.148;14.068;2022-09-20T08:11:53;98585.22;;;7.55;100.00
52319;BME280;38258;51.148;14.068;2022-09-20T08:14:21;98587.16;;;7.39;100.00
52319;BME280;38258;51.148;14.068;2022-09-20T08:16:49;98584.44;;;7.48;100.00
52319;BME280;38258;51.148;14.068;2022-09-20T08:19:17;98583.41;;;7.61;100.00
52319;BME280;38258;51.148;14.068;2022-09-20T08:21:47;98595.00;;;8.03;100.00
52319;BME280;38258;51.148;14.068;2022-09-20T08:24:14;98588.91;;;8.02;100.00
52319;BME280;38258;51.148;14.068;2022-09-20T08:26:42;98593.63;;;8.35;100.00
52319;BME280;38258;51.148;14.068;2022-09-20T08:29:09;98563.34;;;8.28;100.00
52319;BME280;38258;51.148;14.068;2022-09-20T08:31:38;98586.88;;;8.76;100.00
52319;BME280;38258;51.148;14.068;2022-09-20T08:34:10;98589.28;;;8.89;100.00
52319;BME280;38258;51.148;14.068;2022-09-20T08:36:39;98588.69;;;9.20;100.00
52319;BME280;38258;51.148;14.068;2022-09-20T08:39:08;98583.06;;;9.42;100.00
52319;BME280;38258;51.148;14.068;2022-09-20T08:41:39;98586.34;;;9.50;100.00
52319;BME280;38258;51.148;14.068;2022-09-20T08:44:12;98593.34;;;9.50;100.00
52319;BME280;38258;51.148;14.068;2022-09-20T08:46:42;98587.22;;;9.07;100.00
52319;BME280;38258;51.148;14.068;2022-09-20T08:49:15;98596.38;;;8.81;100.00
52319;BME280;38258;51.148;14.068;2022-09-20T08:51:45;98606.66;;;8.90;100.00
52319;BME280;38258;51.148;14.068;2022-09-20T08:54:16;98612.75;;;8.89;100.00
52319;BME280;38258;51.148;14.068;2022-09-20T08:56:43;98601.59;;;8.81;100.00
52319;BME280;38258;51.148;14.068;2022-09-20T08:59:15;98605.91;;;8.82;100.00
52319;BME280;38258;51.148;14.068;2022-09-20T09:01:43;98608.97;;;8.55;100.00
52319;BME280;38258;51.148;14.068;2022-09-20T09:04:12;98603.03;;;8.47;100.00
52319;BME280;38258;51.148;14.068;2022-09-20T09:06:40;98605.59;;;9.00;100.00
52319;BME280;38258;51.148;14.068;2022-09-20T09:09:13;98600.91;;;9.18;100.00
52319;BME280;38258;51.148;14.068;2022-09-20T09:11:44;98599.81;;;9.30;100.00
52319;BME280;38258;51.148;14.068;2022-09-20T09:14:19;98606.41;;;9.04;100.00
52319;BME280;38258;51.148;14.068;2022-09-20T09:17:08;98608.38;;;9.38;100.00
52319;BME280;38258;51.148;14.068;2022-09-20T09:19:43;98613.19;;;9.57;100.00
52319;BME280;38258;51.148;14.068;2022-09-20T09:22:17;98613.06;;;10.04;100.00
52319;BME280;38258;51.148;14.068;2022-09-20T09:24:45;98594.94;;;11.37;100.00
52319;BME280;38258;51.148;14.068;2022-09-20T09:27:16;98601.06;;;10.35;100.00
52319;BME280;38258;51.148;14.068;2022-09-20T09:29:53;98608.75;;;10.03;100.00
52319;BME280;38258;51.148;14.068;2022-09-20T09:32:22;98615.72;;;10.02;100.00
52319;BME280;38258;51.148;14.068;2022-09-20T09:34:51;98595.09;;;9.90;100.00
52319;BME280;38258;51.148;14.068;2022-09-20T09:37:23;98619.13;;;10.06;100.00
52319;BME280;38258;51.148;14.068;2022-09-20T09:40:05;98620.09;;;10.02;100.00
52319;BME280;38258;51.148;14.068;2022-09-20T09:42:34;98626.31;;;10.72;100.00
52319;BME280;38258;51.148;14.068;2022-09-20T09:45:11;98624.59;;;10.35;100.00
52319;BME280;38258;51.148;14.068;2022-09-20T09:47:38;98619.03;;;11.18;100.00
52319;BME280;38258;51.148;14.068;2022-09-20T09:50:11;98619.53;;;11.31;100.00
52319;BME280;38258;51.148;14.068;2022-09-20T09:52:59;98626.47;;;11.00;100.00
52319;BME280;38258;51.148;14.068;2022-09-20T09:55:36;98626.06;;;11.16;100.00
52319;BME280;38258;51.148;14.068;2022-09-20T09:58:15;98627.59;;;12.16;100.00
52319;BME280;38258;51.148;14.068;2022-09-20T10:00:48;98627.06;;;11.12;100.00
52319;BME280;38258;51.148;14.068;2022-09-20T10:03:40;98620.06;;;12.61;100.00
52319;BME280;38258;51.148;14.068;2022-09-20T10:06:13;98620.22;;;11.69;100.00
52319;BME280;38258;51.148;14.068;2022-09-20T10:08:55;98623.31;;;11.82;100.00
52319;BME280;38258;51.148;14.068;2022-09-20T10:11:30;98631.53;;;11.40;100.00
52319;BME280;38258;51.148;14.068;2022-09-20T10:14:17;98621.38;;;10.96;100.00
52319;BME280;38258;51.148;14.068;2022-09-20T10:17:00;98625.69;;;10.97;100.00
52319;BME280;38258;51.148;14.068;2022-09-20T10:19:44;98619.91;;;11.80;100.00
52319;BME280;38258;51.148;14.068;2022-09-20T10:22:18;98617.88;;;12.74;100.00
52319;BME280;38258;51.148;14.068;2022-09-20T10:24:54;98623.06;;;12.77;100.00
52319;BME280;38258;51.148;14.068;2022-09-20T10:27:41;98601.06;;;11.97;100.00
52319;BME280;38258;51.148;14.068;2022-09-20T10:30:17;98637.56;;;12.05;100.00
52319;BME280;38258;51.148;14.068;2022-09-20T10:32:54;98631.66;;;12.54;100.00
52319;BME280;38258;51.148;14.068;2022-09-20T10:35:28;98641.06;;;12.33;100.00
52319;BME280;38258;51.148;14.068;2022-09-20T10:38:10;98644.63;;;11.07;100.00
52319;BME280;38258;51.148;14.068;2022-09-20T10:40:42;98645.50;;;11.07;100.00
52319;BME280;38258;51.148;14.068;2022-09-20T10:43:40;98617.50;;;11.42;100.00
52319;BME280;38258;51.148;14.068;2022-09-20T10:46:20;98644.41;;;11.48;100.00
52319;BME280;38258;51.148;14.068;2022-09-20T10:49:00;98644.59;;;11.73;100.00
52319;BME280;38258;51.148;14.068;2022-09-20T10:51:36;98648.09;;;11.72;100.00
52319;BME280;38258;51.148;14.068;2022-09-20T10:54:13;98655.81;;;12.08;100.00
52319;BME280;38258;51.148;14.068;2022-09-20T10:56:48;98651.94;;;11.28;100.00
52319;BME280;38258;51.148;14.068;2022-09-20T10:59:29;98649.72;;;12.90;100.00
52319;BME280;38258;51.148;14.068;2022-09-20T11:02:12;98641.53;;;13.98;100.00
52319;BME280;38258;51.148;14.068;2022-09-20T11:05:15;98650.88;;;14.96;100.00
52319;BME280;38258;51.148;14.068;2022-09-20T11:07:52;98650.94;;;13.57;100.00
52319;BME280;38258;51.148;14.068;2022-09-20T11:10:25;98646.78;;;12.17;100.00
52319;BME280;38258;51.148;14.068;2022-09-20T11:12:57;98650.47;;;11.50;100.00
52319;BME280;38258;51.148;14.068;2022-09-20T11:15:29;98649.47;;;11.54;100.00
52319;BME280;38258;51.148;14.068;2022-09-20T11:18:05;98648.03;;;12.62;100.00
52319;BME280;38258;51.148;14.068;2022-09-20T11:20:40;98637.28;;;13.71;100.00
52319;BME280;38258;51.148;14.068;2022-09-20T11:23:12;98640.72;;;14.42;100.00
52319;BME280;38258;51.148;14.068;2022-09-20T11:25:44;98644.34;;;14.39;100.00
52319;BME280;38258;51.148;14.068;2022-09-20T11:28:15;98651.66;;;12.85;100.00
52319;BME280;38258;51.148;14.068;2022-09-20T11:30:51;98648.44;;;12.21;100.00
52319;BME280;38258;51.148;14.068;2022-09-20T11:33:25;98639.03;;;11.52;100.00
52319;BME280;38258;51.148;14.068;2022-09-20T11:35:57;98663.13;;;11.00;100.00
52319;BME280;38258;51.148;14.068;2022-09-20T11:38:29;98650.25;;;10.91;100.00
52319;BME280;38258;51.148;14.068;2022-09-20T11:41:01;98656.47;;;10.51;100.00
52319;BME280;38258;51.148;14.068;2022-09-20T11:43:31;98663.50;;;10.49;100.00
52319;BME280;38258;51.148;14.068;2022-09-20T11:46:03;98631.38;;;10.04;100.00
52319;BME280;38258;51.148;14.068;2022-09-20T11:48:38;98659.88;;;10.15;100.00
52319;BME280;38258;51.148;14.068;2022-09-20T11:51:29;98661.53;;;10.58;100.00
52319;BME280;38258;51.148;14.068;2022-09-20T11:54:21;98658.13;;;10.91;100.00
52319;BME280;38258;51.148;14.068;2022-09-20T11:56:55;98659.50;;;11.71;100.00
52319;BME280;38258;51.148;14.068;2022-09-20T11:59:28;98662.78;;;11.46;100.00
52319;BME280;38258;51.148;14.068;2022-09-20T12:01:56;98667.50;;;11.00;100.00
52319;BME280;38258;51.148;14.068;2022-09-20T12:04:29;98647.16;;;10.39;100.00
52319;BME280;38258;51.148;14.068;2022-09-20T12:06:59;98661.00;;;11.48;100.00
52319;BME280;38258;51.148;14.068;2022-09-20T12:09:29;98658.00;;;12.51;100.00
52319;BME280;38258;51.148;14.068;2022-09-20T12:11:57;98642.25;;;12.78;100.00
52319;BME280;38258;51.148;14.068;2022-09-20T12:14:27;98642.31;;;13.78;100.00
52319;BME280;38258;51.148;14.068;2022-09-20T12:16:56;98641.09;;;13.63;100.00
52319;BME280;38258;51.148;14.068;2022-09-20T12:19:37;98632.31;;;13.64;100.00
52319;BME280;38258;51.148;14.068;2022-09-20T12:22:26;98620.97;;;13.12;100.00
52319;BME280;38258;51.148;14.068;2022-09-20T12:25:34;98635.81;;;14.55;100.00
52319;BME280;38258;51.148;14.068;2022-09-20T12:28:01;98639.31;;;14.11;100.00
52319;BME280;38258;51.148;14.068;2022-09-20T12:30:29;98650.38;;;14.19;100.00
52319;BME280;38258;51.148;14.068;2022-09-20T12:32:58;98640.75;;;13.48;100.00
52319;BME280;38258;51.148;14.068;2022-09-20T12:35:59;98640.63;;;13.51;100.00
52319;BME280;38258;51.148;14.068;2022-09-20T12:38:59;98639.69;;;14.24;100.00
52319;BME280;38258;51.148;14.068;2022-09-20T12:41:46;98636.75;;;14.54;100.00
52319;BME280;38258;51.148;14.068;2022-09-20T12:44:25;98631.81;;;15.10;98.35
52319;BME280;38258;51.148;14.068;2022-09-20T12:46:56;98647.63;;;14.67;98.85
52319;BME280;38258;51.148;14.068;2022-09-20T12:49:40;98637.97;;;14.23;100.00
52319;BME280;38258;51.148;14.068;2022-09-20T12:52:29;98640.13;;;14.35;94.60
52319;BME280;38258;51.148;14.068;2022-09-20T12:55:37;98637.84;;;14.48;89.89
52319;BME280;38258;51.148;14.068;2022-09-20T12:58:25;98640.16;;;14.56;87.76
52319;BME280;38258;51.148;14.068;2022-09-20T13:07:39;98644.16;;;14.22;86.16
52319;BME280;38258;51.148;14.068;2022-09-20T13:10:19;98645.41;;;14.56;81.46
52319;BME280;38258;51.148;14.068;2022-09-20T13:12:51;98639.44;;;14.08;77.33
52319;BME280;38258;51.148;14.068;2022-09-20T13:15:20;98647.44;;;13.57;89.34
52319;BME280;38258;51.148;14.068;2022-09-20T13:17:50;98647.25;;;14.09;83.38
52319;BME280;38258;51.148;14.068;2022-09-20T13:20:20;98639.28;;;15.00;76.93
52319;BME280;38258;51.148;14.068;2022-09-20T13:22:51;98645.94;;;14.21;76.49
52319;BME280;38258;51.148;14.068;2022-09-20T13:25:19;98648.13;;;14.10;75.40
52319;BME280;38258;51.148;14.068;2022-09-20T13:27:49;98647.50;;;13.79;80.08
52319;BME280;38258;51.148;14.068;2022-09-20T13:30:18;98647.50;;;13.30;85.05
52319;BME280;38258;51.148;14.068;2022-09-20T13:32:46;98648.25;;;13.59;82.53
52319;BME280;38258;51.148;14.068;2022-09-20T13:35:15;98651.88;;;13.04;93.31
52319;BME280;38258;51.148;14.068;2022-09-20T13:37:51;98663.81;;;13.65;91.82
52319;BME280;38258;51.148;14.068;2022-09-20T13:40:21;98652.31;;;13.44;90.64
52319;BME280;38258;51.148;14.068;2022-09-20T13:42:51;98657.78;;;13.11;93.86
52319;BME280;38258;51.148;14.068;2022-09-20T13:45:19;98656.28;;;12.50;92.55
52319;BME280;38258;51.148;14.068;2022-09-20T13:47:49;98653.56;;;13.81;92.37
52319;BME280;38258;51.148;14.068;2022-09-20T13:50:21;98664.59;;;13.42;88.04
52319;BME280;38258;51.148;14.068;2022-09-20T13:52:52;98664.03;;;12.81;92.66
52319;BME280;38258;51.148;14.068;2022-09-20T13:55:28;98662.72;;;12.68;88.75
52319;BME280;38258;51.148;14.068;2022-09-20T13:57:58;98652.34;;;13.41;86.37
52319;BME280;38258;51.148;14.068;2022-09-20T14:00:26;98654.06;;;14.37;82.39